createdAt,value
2018-02-23T00:02:02.769Z,102549.89
2018-02-23T00:04:31.202Z,102549.52
2018-02-23T00:07:00.160Z,102542.02
2018-02-23T00:09:28.573Z,102542.90
2018-02-23T00:11:57.012Z,102543.80
2018-02-23T00:14:25.517Z,102538.94
2018-02-23T00:16:54.098Z,102535.91
2018-02-23T00:19:22.554Z,102538.55
2018-02-23T00:21:51.606Z,102540.31
2018-02-23T00:24:20.051Z,102540.72
2018-02-23T00:26:49.327Z,102539.02
2018-02-23T00:29:17.859Z,102541.22
2018-02-23T00:31:46.355Z,102543.02
2018-02-23T00:34:14.801Z,102536.39
2018-02-23T00:36:43.338Z,102539.46
2018-02-23T00:39:12.036Z,102539.00
2018-02-23T00:41:40.520Z,102530.64
2018-02-23T00:44:09.744Z,102537.19
2018-02-23T00:46:38.222Z,102538.98
2018-02-23T00:49:06.778Z,102541.63
2018-02-23T00:51:35.470Z,102543.80
2018-02-23T00:54:03.913Z,102548.63
2018-02-23T00:56:33.064Z,102546.45
2018-02-23T00:59:01.583Z,102543.40
2018-02-23T01:01:30.133Z,102544.73
2018-02-23T01:03:58.552Z,102547.84
2018-02-23T01:06:28.671Z,102550.02
2018-02-23T01:08:57.162Z,102547.01
2018-02-23T01:11:25.648Z,102550.08
2018-02-23T01:13:55.168Z,102550.11
2018-02-23T01:16:23.600Z,102556.23
2018-02-23T01:18:52.130Z,102551.42
2018-02-23T01:21:20.735Z,102547.02
2018-02-23T01:23:49.174Z,102547.05
2018-02-23T01:26:17.625Z,102547.92
2018-02-23T01:28:46.524Z,102550.99
2018-02-23T01:31:14.976Z,102552.75
2018-02-23T01:33:44.395Z,102547.49
2018-02-23T01:36:13.061Z,102544.87
2018-02-23T01:38:41.877Z,102547.08
2018-02-23T01:41:10.356Z,102545.75
2018-02-23T01:43:39.456Z,102547.95
2018-02-23T01:46:07.939Z,102546.63
2018-02-23T01:48:36.431Z,102546.66
2018-02-23T01:51:05.677Z,102548.42
2018-02-23T01:53:35.013Z,102541.41
2018-02-23T01:56:04.431Z,102537.00
2018-02-23T01:58:33.196Z,102542.70
2018-02-23T02:01:02.292Z,102537.88
2018-02-23T02:03:30.746Z,102534.84
2018-02-23T02:05:59.964Z,102537.02
2018-02-23T02:08:28.409Z,102540.52
2018-02-23T02:10:56.916Z,102540.54
2018-02-23T02:13:25.404Z,102540.96
2018-02-23T02:15:53.858Z,102527.39
2018-02-23T02:18:22.311Z,102523.88
2018-02-23T02:20:50.823Z,102524.77
2018-02-23T02:23:19.328Z,102528.28
2018-02-23T02:25:48.693Z,102528.28
2018-02-23T02:28:17.211Z,102531.75
2018-02-23T02:30:45.684Z,102527.84
2018-02-23T02:33:14.921Z,102526.09
2018-02-23T02:35:44.470Z,102526.96
2018-02-23T02:38:12.905Z,102524.78
2018-02-23T02:40:41.361Z,102520.81
2018-02-23T02:43:09.948Z,102521.27
2018-02-23T02:45:38.938Z,102522.14
2018-02-23T02:48:07.419Z,102533.07
2018-02-23T02:50:35.976Z,102531.33
2018-02-23T02:53:04.603Z,102525.64
2018-02-23T02:55:35.036Z,102523.90
2018-02-23T02:58:03.498Z,102530.89
2018-02-23T03:00:32.338Z,102526.06
2018-02-23T03:03:00.751Z,102525.63
2018-02-23T03:05:29.224Z,102526.95
2018-02-23T03:07:58.641Z,102522.98
2018-02-23T03:10:27.226Z,102530.88
2018-02-23T03:12:55.794Z,102524.77
2018-02-23T03:15:24.217Z,102525.18
2018-02-23T03:17:52.646Z,102528.25
2018-02-23T03:20:22.117Z,102522.13
2018-02-23T03:22:50.589Z,102523.00
2018-02-23T03:25:19.031Z,102528.70
2018-02-23T03:27:47.660Z,102528.23
2018-02-23T03:30:16.212Z,102525.62
2018-02-23T03:32:44.682Z,102532.16
2018-02-23T03:35:13.501Z,102531.30
2018-02-23T03:37:43.026Z,102536.11
2018-02-23T03:40:11.591Z,102526.88
2018-02-23T03:42:40.696Z,102527.29
2018-02-23T03:45:09.577Z,102525.07
2018-02-23T03:47:38.130Z,102526.85
2018-02-23T03:50:08.350Z,102534.69
2018-02-23T03:52:36.833Z,102536.04
2018-02-23T03:55:05.323Z,102535.60
2018-02-23T03:57:34.360Z,102534.29
2018-02-23T04:00:02.948Z,102540.38
2018-02-23T04:02:31.377Z,102542.16
2018-02-23T04:04:59.857Z,102541.29
2018-02-23T04:07:28.433Z,102543.88
2018-02-23T04:09:56.860Z,102542.97
2018-02-23T04:12:25.380Z,102549.95
2018-02-23T04:14:53.880Z,102554.34
2018-02-23T04:17:22.282Z,102553.41
2018-02-23T04:19:51.529Z,102560.84
2018-02-23T04:22:20.984Z,102556.05
2018-02-23T04:24:49.590Z,102556.48
2018-02-23T04:27:18.907Z,102555.61
2018-02-23T04:29:47.335Z,102563.03
2018-02-23T04:32:15.860Z,102562.59
2018-02-23T04:34:47.061Z,102563.47
2018-02-23T04:37:15.697Z,102570.48
2018-02-23T04:39:44.172Z,102567.35
2018-02-23T04:42:12.718Z,102562.59
2018-02-23T04:44:41.198Z,102564.73
2018-02-23T04:47:09.646Z,102573.43
2018-02-23T04:49:38.537Z,102570.37
2018-02-23T04:52:06.943Z,102574.28
2018-02-23T04:54:35.464Z,102568.55
2018-02-23T04:57:04.491Z,102584.34
2018-02-23T04:59:32.949Z,102579.48
2018-02-23T05:02:01.377Z,102578.22
2018-02-23T05:04:30.381Z,102580.42
2018-02-23T05:06:58.818Z,102592.60
2018-02-23T05:09:27.262Z,102585.58
2018-02-23T05:11:55.883Z,102580.78
2018-02-23T05:14:24.320Z,102582.48
2018-02-23T05:16:52.765Z,102575.02
2018-02-23T05:19:21.226Z,102580.78
2018-02-23T05:21:49.773Z,102573.29
2018-02-23T05:24:18.209Z,102580.30
2018-02-23T05:26:46.767Z,102575.48
2018-02-23T05:29:15.436Z,102576.85
2018-02-23T05:31:43.939Z,102575.97
2018-02-23T05:34:12.533Z,102583.40
2018-02-23T05:36:40.982Z,102580.72
2018-02-23T05:39:09.609Z,102578.54
2018-02-23T05:41:38.225Z,102585.14
2018-02-23T05:44:06.758Z,102578.09
2018-02-23T05:46:36.382Z,102587.20
2018-02-23T05:49:05.870Z,102584.20
2018-02-23T05:51:35.691Z,102585.52
2018-02-23T05:54:04.482Z,102589.09
2018-02-23T05:56:33.491Z,102593.40
2018-02-23T05:59:01.953Z,102599.44
2018-02-23T06:01:30.419Z,102603.01
2018-02-23T06:03:59.695Z,102599.08
2018-02-23T06:06:28.156Z,102610.07
2018-02-23T06:08:56.642Z,102607.45
2018-02-23T06:11:25.099Z,102606.20
2018-02-23T06:13:53.580Z,102611.07
2018-02-23T06:16:28.600Z,102608.03
2018-02-23T06:18:59.187Z,102615.07
2018-02-23T06:21:27.809Z,102610.27
2018-02-23T06:23:56.410Z,102609.83
2018-02-23T06:26:24.878Z,102610.26
2018-02-23T06:28:53.314Z,102615.06
2018-02-23T06:31:21.812Z,102610.27
2018-02-23T06:33:50.298Z,102608.13
2018-02-23T06:36:18.701Z,102603.70
2018-02-23T06:38:47.328Z,102605.83
2018-02-23T06:41:16.019Z,102607.58
2018-02-23T06:43:44.432Z,102601.91
2018-02-23T06:46:14.185Z,102607.59
2018-02-23T06:48:42.793Z,102610.70
2018-02-23T06:51:11.320Z,102612.95
2018-02-23T06:53:40.633Z,102612.50
2018-02-23T06:56:09.195Z,102616.88
2018-02-23T06:58:37.729Z,102613.83
2018-02-23T07:01:06.265Z,102618.62
2018-02-23T07:03:35.196Z,102617.74
2018-02-23T07:06:03.615Z,102623.88
2018-02-23T07:08:32.161Z,102618.59
2018-02-23T07:11:00.613Z,102631.38
2018-02-23T07:13:29.054Z,102618.68
2018-02-23T07:15:57.642Z,102623.98
2018-02-23T07:18:26.116Z,102625.69
2018-02-23T07:20:54.610Z,102628.30
2018-02-23T07:23:23.402Z,102630.98
2018-02-23T07:25:51.982Z,102632.78
2018-02-23T07:28:20.440Z,102635.05
2018-02-23T07:30:49.096Z,102627.60
2018-02-23T07:33:17.590Z,102631.55
2018-02-23T07:35:46.035Z,102630.63
2018-02-23T07:38:14.516Z,102626.75
2018-02-23T07:40:42.963Z,102627.24
2018-02-23T07:43:11.393Z,102630.73
2018-02-23T07:45:40.167Z,102631.19
2018-02-23T07:48:08.633Z,102636.36
2018-02-23T07:50:37.349Z,102635.08
2018-02-23T07:53:06.001Z,102647.77
2018-02-23T07:55:34.573Z,102649.55
2018-02-23T07:58:03.138Z,102651.31
2018-02-23T08:00:31.702Z,102644.30
2018-02-23T08:03:00.125Z,102641.23
2018-02-23T08:05:28.567Z,102660.13
2018-02-23T08:07:57.813Z,102658.80
2018-02-23T08:10:26.247Z,102651.36
2018-02-23T08:12:54.653Z,102650.06
2018-02-23T08:15:23.251Z,102659.24
2018-02-23T08:17:51.676Z,102657.05
2018-02-23T08:20:20.187Z,102651.36
2018-02-23T08:22:49.919Z,102655.34
2018-02-23T08:25:18.380Z,102651.84
2018-02-23T08:27:46.908Z,102653.13
2018-02-23T08:30:15.498Z,102660.57
2018-02-23T08:32:44.106Z,102661.03
2018-02-23T08:35:12.529Z,102658.86
2018-02-23T08:37:42.853Z,102652.70
2018-02-23T08:40:11.313Z,102655.78
2018-02-23T08:42:40.032Z,102653.61
2018-02-23T08:45:09.476Z,102660.14
2018-02-23T08:47:38.262Z,102650.02
2018-02-23T08:50:06.820Z,102652.63
2018-02-23T08:52:36.521Z,102658.71
2018-02-23T08:55:05.088Z,102652.03
2018-02-23T08:57:33.518Z,102655.50
2018-02-23T09:00:02.623Z,102647.89
2018-02-23T09:02:31.078Z,102652.25
2018-02-23T09:04:59.498Z,102661.76
2018-02-23T09:07:28.070Z,102657.69
2018-02-23T09:09:56.546Z,102660.71
2018-02-23T09:12:25.008Z,102662.23
2018-02-23T09:14:53.517Z,102661.60
2018-02-23T09:17:21.997Z,102655.80
2018-02-23T09:19:50.547Z,102658.97
2018-02-23T09:22:19.030Z,102666.38
2018-02-23T09:24:47.453Z,102670.39
2018-02-23T09:27:15.945Z,102666.14
2018-02-23T09:29:44.434Z,102665.16
2018-02-23T09:35:15.986Z,102674.91
2018-02-23T09:37:44.469Z,102677.91
2018-02-23T09:40:12.969Z,102682.38
2018-02-23T09:42:41.501Z,102676.28
2018-02-23T09:45:09.920Z,102674.42
2018-02-23T09:47:38.524Z,102681.83
2018-02-23T09:50:07.063Z,102676.70
2018-02-23T09:52:35.543Z,102680.03
2018-02-23T09:55:04.037Z,102677.96
2018-02-23T09:57:33.004Z,102684.45
2018-02-23T10:00:01.438Z,102672.33
2018-02-23T10:02:29.986Z,102679.67
2018-02-23T10:04:59.103Z,102680.93
2018-02-23T10:07:27.528Z,102668.89
2018-02-23T10:09:56.473Z,102678.43
2018-02-23T10:12:24.945Z,102680.53
2018-02-23T10:14:53.430Z,102674.54
2018-02-23T10:17:21.865Z,102667.96
2018-02-23T10:19:50.472Z,102673.70
2018-02-23T10:22:19.110Z,102668.87
2018-02-23T10:24:47.542Z,102669.12
2018-02-23T10:27:16.126Z,102681.45
2018-02-23T10:29:44.613Z,102676.81
2018-02-23T10:32:13.056Z,102679.72
2018-02-23T10:34:42.421Z,102679.69
2018-02-23T10:37:10.969Z,102682.27
2018-02-23T10:39:39.461Z,102676.45
2018-02-23T10:42:08.108Z,102676.20
2018-02-23T10:44:36.737Z,102674.65
2018-02-23T10:47:05.653Z,102683.36
2018-02-23T10:49:35.588Z,102673.36
2018-02-23T10:52:04.063Z,102676.69
2018-02-23T10:54:32.627Z,102676.83
2018-02-23T10:57:01.142Z,102670.39
2018-02-23T10:59:29.618Z,102673.47
2018-02-23T11:01:58.168Z,102668.03
2018-02-23T11:04:26.701Z,102673.39
2018-02-23T11:06:55.141Z,102676.80
2018-02-23T11:09:23.662Z,102676.34
2018-02-23T11:11:58.270Z,102665.52
2018-02-23T11:14:26.682Z,102667.24
2018-02-23T11:16:55.113Z,102670.80
2018-02-23T11:19:23.576Z,102678.45
2018-02-23T11:21:52.710Z,102676.87
2018-02-23T11:24:21.224Z,102668.34
2018-02-23T11:26:50.650Z,102666.49
2018-02-23T11:29:19.213Z,102668.77
2018-02-23T11:31:48.582Z,102663.09
2018-02-23T11:34:18.483Z,102670.22
2018-02-23T11:36:46.898Z,102671.54
2018-02-23T11:39:15.332Z,102658.91
2018-02-23T11:41:43.803Z,102653.09
2018-02-23T11:44:12.200Z,102657.03
2018-02-23T11:46:40.693Z,102655.74
2018-02-23T11:49:09.625Z,102653.87
2018-02-23T11:51:38.069Z,102656.38
2018-02-23T11:54:06.895Z,102656.51
2018-02-23T11:56:35.810Z,102647.16
2018-02-23T11:59:04.269Z,102642.47
2018-02-23T12:01:32.773Z,102640.14
2018-02-23T12:04:01.434Z,102640.56
2018-02-23T12:06:29.938Z,102647.09
2018-02-23T12:08:58.629Z,102646.12
2018-02-23T12:11:28.055Z,102646.28
2018-02-23T12:13:56.688Z,102640.45
2018-02-23T12:16:26.103Z,102634.69
2018-02-23T12:18:54.548Z,102633.23
2018-02-23T12:21:23.024Z,102622.69
2018-02-23T12:23:58.621Z,102621.11
2018-02-23T12:26:27.133Z,102628.11
2018-02-23T12:28:55.831Z,102632.61
2018-02-23T12:31:24.442Z,102634.05
2018-02-23T12:33:52.878Z,102624.82
2018-02-23T12:36:21.292Z,102635.48
2018-02-23T12:38:49.753Z,102632.06
2018-02-23T12:41:18.156Z,102626.43
2018-02-23T12:43:46.602Z,102620.77
2018-02-23T12:46:15.069Z,102625.10
2018-02-23T12:48:43.572Z,102622.20
2018-02-23T12:51:12.108Z,102610.18
2018-02-23T12:53:40.590Z,102612.01
2018-02-23T12:56:09.480Z,102609.52
2018-02-23T12:58:38.026Z,102613.50
2018-02-23T13:01:07.492Z,102609.66
2018-02-23T13:03:36.219Z,102613.56
2018-02-23T13:06:05.014Z,102608.72
2018-02-23T13:08:34.411Z,102613.53
2018-02-23T13:11:02.908Z,102612.09
2018-02-23T13:13:31.432Z,102609.97
2018-02-23T13:16:00.813Z,102611.70
2018-02-23T13:18:29.356Z,102617.52
2018-02-23T13:20:57.994Z,102606.53
2018-02-23T13:23:26.823Z,102612.68
2018-02-23T13:25:55.311Z,102609.96
2018-02-23T13:28:29.912Z,102609.09
2018-02-23T13:30:58.373Z,102616.23
2018-02-23T13:33:27.546Z,102612.70
2018-02-23T13:35:56.262Z,102622.34
2018-02-23T13:38:24.752Z,102623.66
2018-02-23T13:40:59.025Z,102617.95
2018-02-23T13:43:27.444Z,102609.66
2018-02-23T13:45:55.927Z,102614.02
2018-02-23T13:48:24.955Z,102613.06
2018-02-23T13:50:54.142Z,102614.34
2018-02-23T13:53:22.684Z,102616.55
2018-02-23T13:55:51.215Z,102606.98
2018-02-23T13:58:19.662Z,102611.00
2018-02-23T14:00:48.165Z,102617.56
2018-02-23T14:03:18.231Z,102610.94
2018-02-23T14:05:46.663Z,102611.39
2018-02-23T14:08:15.090Z,102617.92
2018-02-23T14:10:45.003Z,102621.44
2018-02-23T14:13:13.436Z,102617.47
2018-02-23T14:15:41.916Z,102621.36
2018-02-23T14:18:10.535Z,102620.95
2018-02-23T14:20:38.962Z,102619.25
2018-02-23T14:23:07.380Z,102622.72
2018-02-23T14:25:35.887Z,102618.81
2018-02-23T14:28:04.321Z,102624.05
2018-02-23T14:30:32.784Z,102627.63
2018-02-23T14:33:01.282Z,102621.12
2018-02-23T14:35:29.695Z,102618.91
2018-02-23T14:37:58.189Z,102628.95
2018-02-23T14:40:26.675Z,102626.29
2018-02-23T14:42:55.165Z,102621.03
2018-02-23T14:45:23.619Z,102617.53
2018-02-23T14:47:52.174Z,102614.88
2018-02-23T14:50:32.692Z,102626.73
2018-02-23T14:53:02.403Z,102619.73
2018-02-23T14:55:31.034Z,102620.17
2018-02-23T14:58:00.052Z,102624.14
2018-02-23T15:00:29.784Z,102632.05
2018-02-23T15:02:58.623Z,102617.14
2018-02-23T15:05:27.183Z,102626.82
2018-02-23T15:07:55.797Z,102627.66
2018-02-23T15:10:24.236Z,102633.83
2018-02-23T15:12:52.657Z,102625.95
2018-02-23T15:15:21.662Z,102630.30
2018-02-23T15:17:50.090Z,102627.25
2018-02-23T15:20:18.531Z,102633.40
2018-02-23T15:22:47.809Z,102623.28
2018-02-23T15:25:16.250Z,102627.64
2018-02-23T15:27:44.717Z,102629.48
2018-02-23T15:30:25.326Z,102627.28
2018-02-23T15:32:53.774Z,102632.07
2018-02-23T15:35:22.226Z,102630.78
2018-02-23T15:37:50.837Z,102623.76
2018-02-23T15:40:19.312Z,102624.64
2018-02-23T15:42:47.748Z,102621.14
2018-02-23T15:45:16.287Z,102625.52
2018-02-23T15:51:00.705Z,102620.28
2018-02-23T15:53:29.500Z,102624.22
2018-02-23T15:56:00.247Z,102615.89
2018-02-23T15:58:35.626Z,102607.13
2018-02-23T16:01:04.129Z,102610.20
2018-02-23T16:03:32.744Z,102609.77
2018-02-23T16:06:02.507Z,102605.83
2018-02-23T16:08:31.411Z,102607.58
2018-02-23T16:11:00.194Z,102608.91
2018-02-23T16:13:28.849Z,102610.62
2018-02-23T16:15:57.366Z,102609.75
2018-02-23T16:18:25.885Z,102619.84
2018-02-23T16:20:54.363Z,102622.88
2018-02-23T16:23:22.799Z,102615.44
2018-02-23T16:25:51.207Z,102622.47
2018-02-23T16:28:19.657Z,102615.90
2018-02-23T16:30:48.117Z,102626.39
2018-02-23T16:33:16.561Z,102616.30
2018-02-23T16:35:45.136Z,102620.23
2018-02-23T16:38:13.857Z,102612.36
2018-02-23T16:40:42.310Z,102615.40
2018-02-23T16:43:11.738Z,102618.46
2018-02-23T16:45:41.137Z,102620.22
2018-02-23T16:48:09.570Z,102623.31
2018-02-23T16:50:38.105Z,102629.41
2018-02-23T16:53:06.835Z,102623.25
2018-02-23T16:55:35.718Z,102630.73
2018-02-23T16:58:04.206Z,102635.08
2018-02-23T17:00:32.715Z,102645.62
2018-02-23T17:03:01.266Z,102642.95
2018-02-23T17:05:29.808Z,102644.71
2018-02-23T17:07:58.441Z,102644.23
2018-02-23T17:10:26.970Z,102643.39
2018-02-23T17:12:55.973Z,102653.91
2018-02-23T17:15:24.481Z,102652.63
2018-02-23T17:17:52.937Z,102654.78
2018-02-23T17:20:22.041Z,102662.19
2018-02-23T17:22:50.473Z,102659.56
2018-02-23T17:25:18.897Z,102657.81
2018-02-23T17:27:47.847Z,102664.77
2018-02-23T17:30:16.254Z,102663.50
2018-02-23T17:32:44.719Z,102662.58
2018-02-23T17:35:13.159Z,102658.64
2018-02-23T17:37:41.652Z,102666.56
2018-02-23T17:40:10.090Z,102662.14
2018-02-23T17:42:38.704Z,102660.87
2018-02-23T17:45:07.357Z,102654.27
2018-02-23T17:47:35.883Z,102657.33
2018-02-23T17:50:04.548Z,102658.69
2018-02-23T17:52:33.173Z,102662.19
2018-02-23T17:55:01.719Z,102663.50
2018-02-23T17:57:30.444Z,102662.59
2018-02-23T17:59:58.926Z,102669.53
2018-02-23T18:02:28.261Z,102676.11
2018-02-23T18:04:56.970Z,102673.48
2018-02-23T18:07:25.534Z,102673.95
2018-02-23T18:09:53.976Z,102670.50
2018-02-23T18:12:22.759Z,102661.70
2018-02-23T18:14:51.235Z,102671.72
2018-02-23T18:17:19.649Z,102666.91
2018-02-23T18:19:48.740Z,102663.41
2018-02-23T18:22:17.190Z,102663.80
2018-02-23T18:24:45.630Z,102654.22
2018-02-23T18:27:14.103Z,102658.59
2018-02-23T18:29:42.556Z,102659.41
2018-02-23T18:32:10.972Z,102665.94
2018-02-23T18:34:40.042Z,102663.75
2018-02-23T18:37:08.466Z,102666.86
2018-02-23T18:39:37.031Z,102658.55
2018-02-23T18:42:06.505Z,102669.91
2018-02-23T18:44:35.190Z,102679.06
2018-02-23T18:47:03.920Z,102670.30
2018-02-23T18:49:32.755Z,102680.86
2018-02-23T18:52:01.304Z,102686.12
2018-02-23T18:54:29.943Z,102679.98
2018-02-23T18:56:58.675Z,102681.30
2018-02-23T18:59:27.486Z,102683.92
2018-02-23T19:01:55.955Z,102676.92
2018-02-23T19:04:24.481Z,102678.72
2018-02-23T19:06:55.594Z,102672.99
2018-02-23T19:09:24.271Z,102683.87
2018-02-23T19:11:54.110Z,102675.13
2018-02-23T19:14:22.644Z,102681.30
2018-02-23T19:16:51.094Z,102669.48
2018-02-23T19:19:19.601Z,102684.79
2018-02-23T19:21:48.252Z,102686.98
2018-02-23T19:24:16.810Z,102684.31
2018-02-23T19:26:45.693Z,102681.23
2018-02-23T19:29:14.185Z,102682.98
2018-02-23T19:31:42.669Z,102681.19
2018-02-23T19:34:11.278Z,102686.88
2018-02-23T19:36:39.766Z,102686.05
2018-02-23T19:39:08.267Z,102690.03
2018-02-23T19:41:36.856Z,102688.24
2018-02-23T19:44:05.439Z,102690.05
2018-02-23T19:46:36.373Z,102689.94
2018-02-23T19:49:05.713Z,102692.62
2018-02-23T19:51:35.216Z,102691.25
2018-02-23T19:54:04.285Z,102698.30
2018-02-23T19:56:33.328Z,102696.03
2018-02-23T19:59:02.919Z,102696.09
2018-02-23T20:01:32.008Z,102695.62
2018-02-23T20:04:01.407Z,102703.04
2018-02-23T20:06:30.941Z,102699.55
2018-02-23T20:09:00.119Z,102710.12
2018-02-23T20:11:29.663Z,102707.93
2018-02-23T20:13:59.051Z,102714.10
2018-02-23T20:16:28.906Z,102706.12
2018-02-23T20:19:00.070Z,102706.56
2018-02-23T20:21:29.940Z,102707.42
2018-02-23T20:23:59.935Z,102718.80
2018-02-23T20:26:31.451Z,102718.41
2018-02-23T20:29:01.449Z,102722.34
2018-02-23T20:31:31.185Z,102720.61
2018-02-23T20:34:02.048Z,102726.74
2018-02-23T20:36:31.032Z,102731.13
2018-02-23T20:39:01.861Z,102738.12
2018-02-23T20:41:31.413Z,102742.54
2018-02-23T20:44:00.785Z,102742.06
2018-02-23T20:46:30.282Z,102739.94
2018-02-23T20:49:00.093Z,102749.11
2018-02-23T20:51:30.008Z,102741.67
2018-02-23T20:53:59.505Z,102745.05
2018-02-23T20:56:28.703Z,102740.34
2018-02-23T20:58:59.344Z,102750.73
2018-02-23T21:01:28.989Z,102742.41
2018-02-23T21:03:58.294Z,102746.80
2018-02-23T21:06:28.315Z,102746.42
2018-02-23T21:08:58.893Z,102743.36
2018-02-23T21:11:29.549Z,102744.30
2018-02-23T21:14:00.569Z,102751.23
2018-02-23T21:16:29.919Z,102749.47
2018-02-23T21:18:59.281Z,102751.22
2018-02-23T21:21:29.251Z,102751.17
2018-02-23T21:23:58.645Z,102751.67
2018-02-23T21:26:27.927Z,102751.59
2018-02-23T21:28:58.520Z,102752.48
2018-02-23T21:31:28.031Z,102758.67
2018-02-23T21:33:57.588Z,102757.85
2018-02-23T21:36:32.454Z,102753.44
2018-02-23T21:39:03.317Z,102751.25
2018-02-23T21:41:46.104Z,102760.86
2018-02-23T21:44:15.315Z,102763.55
2018-02-23T21:46:44.021Z,102763.50
2018-02-23T21:49:12.530Z,102767.41
2018-02-23T21:51:41.766Z,102768.66
2018-02-23T21:54:10.811Z,102773.48
2018-02-23T21:56:41.679Z,102767.36
2018-02-23T21:59:10.864Z,102773.02
2018-02-23T22:01:40.430Z,102773.97
2018-02-23T22:04:10.557Z,102771.30
2018-02-23T22:06:39.464Z,102776.69
2018-02-23T22:09:08.531Z,102776.23
2018-02-23T22:11:38.244Z,102770.55
2018-02-23T22:14:08.565Z,102771.94
2018-02-23T22:16:37.774Z,102763.23
2018-02-23T22:19:06.902Z,102770.70
2018-02-23T22:21:36.065Z,102771.13
2018-02-23T22:24:04.825Z,102771.56
2018-02-23T22:26:33.749Z,102772.51
2018-02-23T22:29:03.054Z,102765.94
2018-02-23T22:31:32.718Z,102770.76
2018-02-23T22:34:01.461Z,102774.75
2018-02-23T22:36:31.154Z,102772.05
2018-02-23T22:38:59.880Z,102771.57
2018-02-23T22:41:28.859Z,102768.56
2018-02-23T22:43:57.417Z,102772.88
2018-02-23T22:46:25.848Z,102768.61
2018-02-23T22:48:55.087Z,102773.48
2018-02-23T22:51:23.615Z,102777.42
2018-02-23T22:53:52.342Z,102778.25
2018-02-23T22:56:20.907Z,102773.05
2018-02-23T22:58:49.616Z,102772.13
2018-02-23T23:01:18.045Z,102776.98
2018-02-23T23:03:47.156Z,102775.28
2018-02-23T23:06:16.111Z,102774.89
2018-02-23T23:08:45.161Z,102772.70
2018-02-23T23:11:14.456Z,102766.61
2018-02-23T23:13:42.864Z,102772.30
2018-02-23T23:16:11.296Z,102774.52
2018-02-23T23:18:39.808Z,102775.84
2018-02-23T23:21:08.230Z,102778.47
2018-02-23T23:23:36.690Z,102774.52
2018-02-23T23:26:05.307Z,102776.75
2018-02-23T23:28:33.807Z,102779.78
2018-02-23T23:31:02.356Z,102778.94
2018-02-23T23:33:31.080Z,102781.56
2018-02-23T23:35:59.593Z,102785.08
2018-02-23T23:38:28.185Z,102784.57
2018-02-23T23:40:58.153Z,102791.17
2018-02-23T23:43:26.735Z,102794.69
2018-02-23T23:45:55.231Z,102796.00
2018-02-23T23:48:23.753Z,102801.69
2018-02-23T23:50:52.274Z,102799.03
2018-02-23T23:53:20.864Z,102797.27
2018-02-23T23:55:49.379Z,102788.52
2018-02-23T23:58:17.832Z,102791.17
